createdAt,value
2023-02-14T00:01:22.986Z,2.45
2023-02-14T00:03:49.940Z,2.43
2023-02-14T00:06:16.945Z,2.40
2023-02-14T00:08:44.914Z,2.41
2023-02-14T00:11:13.927Z,2.41
2023-02-14T00:14:01.408Z,2.44
2023-02-14T00:16:28.505Z,2.46
2023-02-14T00:19:04.760Z,2.48
2023-02-14T00:21:36.727Z,2.49
2023-02-14T00:24:28.794Z,2.52
2023-02-14T00:26:55.769Z,2.53
2023-02-14T00:29:30.992Z,2.61
2023-02-14T00:31:59.326Z,2.64
2023-02-14T00:34:26.892Z,2.62
2023-02-14T00:36:53.989Z,2.56
2023-02-14T00:39:21.096Z,2.50
2023-02-14T00:41:48.158Z,2.48
2023-02-14T00:44:17.316Z,2.43
2023-02-14T00:46:45.492Z,2.34
2023-02-14T00:49:12.505Z,2.27
2023-02-14T00:51:39.971Z,2.18
2023-02-14T00:54:07.099Z,2.12
2023-02-14T00:56:34.112Z,2.07
2023-02-14T00:59:01.767Z,2.01
2023-02-14T01:01:29.199Z,1.94
2023-02-14T01:03:56.459Z,1.87
2023-02-14T01:06:23.503Z,1.83
2023-02-14T01:08:50.506Z,1.78
2023-02-14T01:11:22.026Z,1.76
2023-02-14T01:13:50.628Z,1.74
2023-02-14T01:16:22.040Z,1.70
2023-02-14T01:18:49.776Z,1.67
2023-02-14T01:21:31.464Z,1.64
2023-02-14T01:24:02.662Z,1.63
2023-02-14T01:26:30.113Z,1.66
2023-02-14T01:28:57.514Z,1.67
2023-02-14T01:31:29.473Z,1.70
2023-02-14T01:33:58.253Z,1.73
2023-02-14T01:36:33.783Z,1.77
2023-02-14T01:39:05.721Z,1.78
2023-02-14T01:41:37.413Z,1.77
2023-02-14T01:44:32.974Z,1.79
2023-02-14T01:47:06.733Z,1.79
2023-02-14T01:49:46.126Z,1.79
2023-02-14T01:52:28.803Z,1.79
2023-02-14T01:55:02.934Z,1.78
2023-02-14T01:57:43.848Z,1.76
2023-02-14T02:00:30.982Z,1.74
2023-02-14T02:03:02.436Z,1.75
2023-02-14T02:05:30.131Z,1.75
2023-02-14T02:08:00.660Z,1.74
2023-02-14T02:10:29.092Z,1.73
2023-02-14T02:13:03.581Z,1.72
2023-02-14T02:15:35.113Z,1.70
2023-02-14T02:18:22.810Z,1.70
2023-02-14T02:21:32.424Z,1.72
2023-02-14T02:24:48.659Z,1.75
2023-02-14T02:28:02.726Z,1.75
2023-02-14T02:30:36.793Z,1.74
2023-02-14T02:34:05.832Z,1.73
2023-02-14T02:36:46.827Z,1.68
2023-02-14T02:39:36.308Z,1.64
2023-02-14T02:42:36.205Z,1.62
2023-02-14T02:45:18.176Z,1.59
2023-02-14T02:47:58.348Z,1.55
2023-02-14T02:51:01.539Z,1.59
2023-02-14T02:53:51.388Z,1.59
2023-02-14T02:56:48.721Z,1.57
2023-02-14T02:59:37.992Z,1.55
2023-02-14T03:02:23.000Z,1.55
2023-02-14T03:04:59.369Z,1.55
2023-02-14T03:07:41.572Z,1.54
2023-02-14T03:10:25.304Z,1.54
2023-02-14T03:13:33.504Z,1.54
2023-02-14T03:16:29.779Z,1.55
2023-02-14T03:19:24.786Z,1.55
2023-02-14T03:22:03.198Z,1.57
2023-02-14T03:24:56.155Z,1.59
2023-02-14T03:28:28.735Z,1.59
2023-02-14T03:31:08.396Z,1.53
2023-02-14T03:33:47.128Z,1.49
2023-02-14T03:36:26.899Z,1.46
2023-02-14T03:39:08.837Z,1.42
2023-02-14T03:41:51.777Z,1.40
2023-02-14T03:44:28.434Z,1.38
2023-02-14T03:47:04.401Z,1.38
2023-02-14T03:49:39.113Z,1.31
2023-02-14T03:52:10.263Z,1.23
2023-02-14T03:54:37.818Z,1.19
2023-02-14T03:57:26.907Z,1.13
2023-02-14T03:59:56.379Z,1.10
2023-02-14T04:02:37.469Z,1.08
2023-02-14T04:05:15.304Z,1.08
2023-02-14T04:07:55.917Z,1.09
2023-02-14T04:10:25.298Z,1.07
2023-02-14T04:12:53.544Z,1.03
2023-02-14T04:15:20.541Z,1.03
2023-02-14T04:18:05.833Z,1.01
2023-02-14T04:20:34.135Z,0.93
2023-02-14T04:23:03.299Z,0.85
2023-02-14T04:25:31.477Z,0.77
2023-02-14T04:27:58.496Z,0.69
2023-02-14T04:30:25.489Z,0.62
2023-02-14T04:32:52.569Z,0.55
2023-02-14T04:35:19.574Z,0.49
2023-02-14T04:37:46.745Z,0.42
2023-02-14T04:40:17.246Z,0.39
2023-02-14T04:42:46.328Z,0.33
2023-02-14T04:45:13.651Z,0.27
2023-02-14T04:47:40.730Z,0.23
2023-02-14T04:50:08.565Z,0.16
2023-02-14T04:52:35.559Z,0.11
2023-02-14T04:55:02.723Z,0.06
2023-02-14T04:57:29.940Z,0.02
2023-02-14T04:59:57.037Z,-0.04
2023-02-14T05:02:24.213Z,-0.07
2023-02-14T05:04:51.250Z,-0.10
2023-02-14T05:07:18.213Z,-0.10
2023-02-14T05:09:45.158Z,-0.14
2023-02-14T05:12:12.196Z,-0.14
2023-02-14T05:14:39.109Z,-0.13
2023-02-14T05:17:06.152Z,-0.14
2023-02-14T05:19:33.154Z,-0.17
2023-02-14T05:22:00.101Z,-0.17
2023-02-14T05:24:27.090Z,-0.17
2023-02-14T05:26:54.097Z,-0.14
2023-02-14T05:29:21.142Z,-0.16
2023-02-14T05:31:48.469Z,-0.15
2023-02-14T05:34:15.538Z,-0.16
2023-02-14T05:36:42.558Z,-0.17
2023-02-14T05:39:09.585Z,-0.14
2023-02-14T05:41:36.606Z,-0.17
2023-02-14T05:44:04.272Z,-0.17
2023-02-14T05:46:31.299Z,-0.19
2023-02-14T05:48:59.008Z,-0.17
2023-02-14T05:51:26.008Z,-0.14
2023-02-14T05:53:52.965Z,-0.11
2023-02-14T05:56:19.926Z,-0.12
2023-02-14T05:58:46.868Z,-0.11
2023-02-14T06:01:13.933Z,-0.10
2023-02-14T06:03:40.896Z,-0.09
2023-02-14T06:06:08.144Z,-0.07
2023-02-14T06:08:35.334Z,-0.05
2023-02-14T06:11:02.614Z,-0.01
2023-02-14T06:13:29.789Z,0.04
2023-02-14T06:15:56.749Z,0.09
2023-02-14T06:18:27.461Z,0.13
2023-02-14T06:20:55.266Z,0.17
2023-02-14T06:23:22.364Z,0.22
2023-02-14T06:25:49.305Z,0.26
2023-02-14T06:28:16.281Z,0.29
2023-02-14T06:30:43.434Z,0.32
2023-02-14T06:33:10.484Z,0.36
2023-02-14T06:35:37.475Z,0.39
2023-02-14T06:38:04.479Z,0.41
2023-02-14T06:40:31.417Z,0.44
2023-02-14T06:42:58.490Z,0.44
2023-02-14T06:45:26.751Z,0.46
2023-02-14T06:47:53.750Z,0.43
2023-02-14T06:50:20.781Z,0.43
2023-02-14T06:52:48.382Z,0.43
2023-02-14T06:55:15.413Z,0.41
2023-02-14T06:57:42.798Z,0.41
2023-02-14T07:00:14.768Z,0.40
2023-02-14T07:02:42.363Z,0.40
2023-02-14T07:05:09.738Z,0.43
2023-02-14T07:07:36.735Z,0.47
2023-02-14T07:10:04.289Z,0.52
2023-02-14T07:12:31.317Z,0.56
2023-02-14T07:14:58.304Z,0.62
2023-02-14T07:17:25.292Z,0.67
2023-02-14T07:19:52.280Z,0.72
2023-02-14T07:22:19.264Z,0.79
2023-02-14T07:24:46.232Z,0.85
2023-02-14T07:27:13.279Z,0.89
2023-02-14T07:29:40.386Z,0.95
2023-02-14T07:32:07.556Z,0.99
2023-02-14T07:34:34.682Z,1.02
2023-02-14T07:37:02.126Z,1.03
2023-02-14T07:39:29.246Z,1.06
2023-02-14T07:41:56.228Z,1.10
2023-02-14T07:44:26.786Z,1.13
2023-02-14T07:46:53.727Z,1.17
2023-02-14T07:49:20.741Z,1.25
2023-02-14T07:51:47.716Z,1.31
2023-02-14T07:54:14.710Z,1.36
2023-02-14T07:56:41.805Z,1.44
2023-02-14T07:59:08.833Z,1.49
2023-02-14T08:01:35.773Z,1.57
2023-02-14T08:04:02.896Z,1.65
2023-02-14T08:06:29.843Z,1.69
2023-02-14T08:08:56.893Z,1.77
2023-02-14T08:11:42.461Z,1.86
2023-02-14T08:14:09.558Z,1.97
2023-02-14T08:16:38.154Z,2.08
2023-02-14T08:19:05.839Z,2.17
2023-02-14T08:21:32.878Z,2.27
2023-02-14T08:24:00.419Z,2.39
2023-02-14T08:26:28.770Z,2.49
2023-02-14T08:28:55.796Z,2.62
2023-02-14T08:31:35.646Z,2.74
2023-02-14T08:34:07.406Z,2.85
2023-02-14T08:36:35.564Z,2.95
2023-02-14T08:39:04.997Z,3.06
2023-02-14T08:41:32.946Z,3.17
2023-02-14T08:43:59.931Z,3.29
2023-02-14T08:46:27.159Z,3.40
2023-02-14T08:48:54.929Z,3.50
2023-02-14T08:51:26.107Z,3.60
2023-02-14T08:53:53.267Z,3.72
2023-02-14T08:56:22.591Z,3.82
2023-02-14T08:58:53.231Z,3.97
2023-02-14T09:01:20.670Z,4.09
2023-02-14T09:03:47.717Z,4.19
2023-02-14T09:06:17.492Z,4.31
2023-02-14T09:08:45.218Z,4.42
2023-02-14T09:11:22.061Z,4.55
2023-02-14T09:13:53.086Z,4.67
2023-02-14T09:16:23.127Z,4.80
2023-02-14T09:18:53.330Z,4.91
2023-02-14T09:21:25.228Z,5.03
2023-02-14T09:23:52.484Z,5.16
2023-02-14T09:26:20.609Z,5.29
2023-02-14T09:28:48.380Z,5.38
2023-02-14T09:31:20.580Z,5.50
2023-02-14T09:34:08.790Z,5.63
2023-02-14T09:36:35.801Z,5.75
2023-02-14T09:39:03.341Z,5.85
2023-02-14T09:41:30.380Z,5.95
2023-02-14T09:44:07.673Z,6.05
2023-02-14T09:46:48.785Z,6.12
2023-02-14T09:49:33.621Z,6.21
2023-02-14T09:52:04.201Z,6.31
2023-02-14T09:54:35.862Z,6.41
2023-02-14T09:57:11.778Z,6.53
2023-02-14T10:00:31.767Z,6.63
2023-02-14T10:03:35.097Z,6.75
2023-02-14T10:06:46.760Z,6.84
2023-02-14T10:09:56.741Z,6.95
2023-02-14T10:12:34.947Z,7.05
2023-02-14T10:15:17.939Z,7.12
2023-02-14T10:17:55.678Z,7.21
2023-02-14T10:20:41.830Z,7.34
2023-02-14T10:23:27.608Z,7.42
2023-02-14T10:26:09.369Z,7.53
2023-02-14T10:28:50.357Z,7.63
2023-02-14T10:31:31.109Z,7.74
2023-02-14T10:34:27.026Z,7.85
2023-02-14T10:37:30.000Z,7.97
2023-02-14T10:40:21.445Z,8.09
2023-02-14T10:43:40.850Z,8.23
2023-02-14T10:46:38.601Z,8.38
2023-02-14T10:49:41.255Z,8.46
2023-02-14T10:52:47.061Z,8.57
2023-02-14T10:55:32.414Z,8.66
2023-02-14T10:58:05.797Z,8.74
2023-02-14T11:00:51.997Z,8.82
2023-02-14T11:03:20.096Z,8.91
2023-02-14T11:05:49.421Z,8.99
2023-02-14T11:08:26.009Z,9.07
2023-02-14T11:11:16.449Z,9.16
2023-02-14T11:13:45.125Z,9.26
2023-02-14T11:16:33.414Z,9.35
2023-02-14T11:19:18.665Z,9.46
2023-02-14T11:21:49.578Z,9.56
2023-02-14T11:24:39.365Z,9.64
2023-02-14T11:27:12.339Z,9.77
2023-02-14T11:29:39.202Z,9.87
2023-02-14T11:32:15.659Z,9.98
2023-02-14T11:34:59.653Z,10.04
2023-02-14T11:37:32.548Z,10.13
2023-02-14T11:40:01.960Z,10.22
2023-02-14T11:42:42.603Z,10.31
2023-02-14T11:45:36.805Z,10.37
2023-02-14T11:48:39.459Z,10.44
2023-02-14T11:51:15.059Z,10.51
2023-02-14T11:53:53.503Z,10.61
2023-02-14T11:56:22.608Z,10.66
2023-02-14T11:58:59.957Z,10.74
2023-02-14T12:01:33.505Z,10.81
2023-02-14T12:04:07.431Z,10.91
2023-02-14T12:06:36.680Z,10.98
2023-02-14T12:09:22.136Z,11.07
2023-02-14T12:12:00.226Z,11.15
2023-02-14T12:14:35.340Z,11.25
2023-02-14T12:17:13.375Z,11.30
2023-02-14T12:20:10.931Z,11.36
2023-02-14T12:23:01.261Z,11.41
2023-02-14T12:25:45.214Z,11.49
2023-02-14T12:28:24.797Z,11.53
2023-02-14T12:30:51.908Z,11.61
2023-02-14T12:33:22.202Z,11.67
2023-02-14T12:36:09.013Z,11.74
2023-02-14T12:38:58.042Z,11.81
2023-02-14T12:41:46.637Z,11.90
2023-02-14T12:44:51.995Z,11.93
2023-02-14T12:47:40.687Z,11.95
2023-02-14T12:50:29.236Z,12.01
2023-02-14T12:53:27.722Z,12.04
2023-02-14T12:56:19.864Z,12.14
2023-02-14T12:58:56.742Z,12.19
2023-02-14T13:01:38.923Z,12.25
2023-02-14T13:04:29.643Z,12.32
2023-02-14T13:07:39.094Z,12.38
2023-02-14T13:10:53.383Z,12.46
2023-02-14T13:13:42.226Z,12.51
2023-02-14T13:16:39.059Z,12.56
2023-02-14T13:19:30.932Z,12.60
2023-02-14T13:21:59.967Z,12.60
2023-02-14T13:24:48.149Z,12.63
2023-02-14T13:27:28.044Z,12.66
2023-02-14T13:30:02.861Z,12.67
2023-02-14T13:32:40.470Z,12.70
2023-02-14T13:35:15.572Z,12.73
2023-02-14T13:37:53.513Z,12.80
2023-02-14T13:40:28.132Z,12.87
2023-02-14T13:43:01.646Z,12.91
2023-02-14T13:45:41.093Z,12.96
2023-02-14T13:48:23.058Z,12.96
2023-02-14T13:50:53.461Z,12.95
2023-02-14T13:53:49.485Z,12.96
2023-02-14T13:56:16.374Z,12.95
2023-02-14T13:58:49.515Z,12.97
2023-02-14T14:01:35.875Z,12.98
2023-02-14T14:04:32.058Z,12.99
2023-02-14T14:07:05.025Z,13.00
2023-02-14T14:09:41.136Z,13.00
2023-02-14T14:12:26.497Z,13.01
2023-02-14T14:15:05.769Z,13.01
2023-02-14T14:17:40.355Z,12.99
2023-02-14T14:20:16.677Z,13.00
2023-02-14T14:22:50.946Z,12.98
2023-02-14T14:25:44.981Z,12.95
2023-02-14T14:28:20.640Z,12.93
2023-02-14T14:30:48.681Z,12.91
2023-02-14T14:33:25.589Z,12.91
2023-02-14T14:35:58.880Z,12.91
2023-02-14T14:38:32.461Z,12.85
2023-02-14T14:41:01.710Z,12.82
2023-02-14T14:43:38.135Z,12.80
2023-02-14T14:46:11.880Z,12.79
2023-02-14T14:48:52.384Z,12.81
2023-02-14T14:51:35.971Z,12.80
2023-02-14T14:54:08.461Z,12.80
2023-02-14T14:56:47.115Z,12.76
2023-02-14T14:59:35.153Z,12.72
2023-02-14T15:02:04.184Z,12.67
2023-02-14T15:04:33.983Z,12.61
2023-02-14T15:07:34.921Z,12.63
2023-02-14T15:10:02.442Z,12.58
2023-02-14T15:12:49.011Z,12.52
2023-02-14T15:15:18.438Z,12.50
2023-02-14T15:17:46.771Z,12.49
2023-02-14T15:20:21.572Z,12.48
2023-02-14T15:22:52.570Z,12.46
2023-02-14T15:25:31.605Z,12.41
2023-02-14T15:27:58.648Z,12.37
2023-02-14T15:30:38.034Z,12.32
2023-02-14T15:33:07.701Z,12.27
2023-02-14T15:35:42.311Z,12.25
2023-02-14T15:38:13.575Z,12.18
2023-02-14T15:40:43.826Z,12.09
2023-02-14T15:43:21.837Z,12.03
2023-02-14T15:45:58.319Z,11.94
2023-02-14T15:48:33.437Z,11.83
2023-02-14T15:51:02.901Z,11.74
2023-02-14T15:53:45.835Z,11.65
2023-02-14T15:56:49.824Z,11.56
2023-02-14T15:59:22.457Z,11.45
2023-02-14T16:01:58.937Z,11.37
2023-02-14T16:04:31.027Z,11.26
2023-02-14T16:07:13.589Z,11.17
2023-02-14T16:09:40.681Z,11.08
2023-02-14T16:12:36.530Z,10.99
2023-02-14T16:15:24.954Z,10.88
2023-02-14T16:17:52.348Z,10.75
2023-02-14T16:20:42.273Z,10.65
2023-02-14T16:23:28.618Z,10.52
2023-02-14T16:25:58.981Z,10.40
2023-02-14T16:28:30.700Z,10.31
2023-02-14T16:31:03.033Z,10.23
2023-02-14T16:33:35.495Z,10.14
2023-02-14T16:36:20.426Z,10.05
2023-02-14T16:38:47.618Z,9.87
2023-02-14T16:41:21.703Z,9.76
2023-02-14T16:43:49.860Z,9.64
2023-02-14T16:46:22.249Z,9.52
2023-02-14T16:48:52.138Z,9.42
2023-02-14T16:51:22.780Z,9.29
2023-02-14T16:53:50.689Z,9.17
2023-02-14T16:56:26.819Z,9.08
2023-02-14T16:58:53.837Z,8.94
2023-02-14T17:01:20.690Z,8.84
2023-02-14T17:03:47.680Z,8.76
2023-02-14T17:06:20.822Z,8.65
2023-02-14T17:08:51.947Z,8.53
2023-02-14T17:11:20.396Z,8.43
2023-02-14T17:13:48.571Z,8.33
2023-02-14T17:16:17.291Z,8.21
2023-02-14T17:18:48.981Z,8.09
2023-02-14T17:21:19.816Z,7.98
2023-02-14T17:23:46.816Z,7.85
2023-02-14T17:26:14.305Z,7.75
2023-02-14T17:28:41.210Z,7.66
2023-02-14T17:31:08.392Z,7.57
2023-02-14T17:33:36.018Z,7.48
2023-02-14T17:36:11.783Z,7.41
2023-02-14T17:38:40.598Z,7.34
2023-02-14T17:41:30.045Z,7.25
2023-02-14T17:44:00.343Z,7.18
2023-02-14T17:46:29.735Z,7.11
2023-02-14T17:48:57.917Z,7.05
2023-02-14T17:51:25.086Z,6.96
2023-02-14T17:53:52.102Z,6.87
2023-02-14T17:56:24.891Z,6.80
2023-02-14T17:58:54.996Z,6.71
2023-02-14T18:01:25.852Z,6.61
2023-02-14T18:03:55.914Z,6.52
2023-02-14T18:06:23.137Z,6.43
2023-02-14T18:08:53.019Z,6.35
2023-02-14T18:11:21.117Z,6.26
2023-02-14T18:13:50.192Z,6.17
2023-02-14T18:16:19.694Z,6.12
2023-02-14T18:18:47.949Z,6.04
2023-02-14T18:21:21.065Z,5.96
2023-02-14T18:23:48.906Z,5.87
2023-02-14T18:26:18.654Z,5.78
2023-02-14T18:28:46.376Z,5.68
2023-02-14T18:31:18.106Z,5.57
2023-02-14T18:33:47.936Z,5.49
2023-02-14T18:36:19.619Z,5.41
2023-02-14T18:38:48.903Z,5.32
2023-02-14T18:41:19.543Z,5.23
2023-02-14T18:43:48.905Z,5.12
2023-02-14T18:46:22.263Z,5.05
2023-02-14T18:48:50.644Z,4.95
2023-02-14T18:51:22.279Z,4.88
2023-02-14T18:53:52.936Z,4.81
2023-02-14T18:56:30.201Z,4.77
2023-02-14T18:59:02.167Z,4.74
2023-02-14T19:01:36.707Z,4.72
2023-02-14T19:04:08.510Z,4.68
2023-02-14T19:06:36.325Z,4.63
2023-02-14T19:09:08.814Z,4.61
2023-02-14T19:11:35.945Z,4.59
2023-02-14T19:14:09.382Z,4.58
2023-02-14T19:16:43.914Z,4.57
2023-02-14T19:19:11.285Z,4.56
2023-02-14T19:21:38.541Z,4.53
2023-02-14T19:24:07.465Z,4.47
2023-02-14T19:26:40.318Z,4.41
2023-02-14T19:29:12.295Z,4.33
2023-02-14T19:31:48.214Z,4.26
2023-02-14T19:34:30.789Z,4.21
2023-02-14T19:37:01.192Z,4.14
2023-02-14T19:39:29.991Z,4.08
2023-02-14T19:41:57.708Z,4.02
2023-02-14T19:44:25.864Z,3.96
2023-02-14T19:46:54.386Z,3.89
2023-02-14T19:49:23.432Z,3.82
2023-02-14T19:51:53.880Z,3.77
2023-02-14T19:54:22.827Z,3.71
2023-02-14T19:56:49.763Z,3.64
2023-02-14T19:59:21.752Z,3.62
2023-02-14T20:01:55.053Z,3.60
2023-02-14T20:04:28.585Z,3.59
2023-02-14T20:06:56.888Z,3.53
2023-02-14T20:09:25.520Z,3.49
2023-02-14T20:11:55.713Z,3.43
2023-02-14T20:14:31.478Z,3.38
2023-02-14T20:17:02.345Z,3.32
2023-02-14T20:19:34.276Z,3.29
2023-02-14T20:22:01.956Z,3.24
2023-02-14T20:24:32.149Z,3.19
2023-02-14T20:27:02.339Z,3.13
2023-02-14T20:29:29.927Z,3.07
2023-02-14T20:31:59.777Z,3.02
2023-02-14T20:34:28.252Z,2.98
2023-02-14T20:36:56.144Z,2.93
2023-02-14T20:39:30.475Z,2.87
2023-02-14T20:41:58.484Z,2.83
2023-02-14T20:44:26.373Z,2.77
2023-02-14T20:46:56.190Z,2.71
2023-02-14T20:49:25.895Z,2.66
2023-02-14T20:51:53.229Z,2.60
2023-02-14T20:54:24.243Z,2.55
2023-02-14T20:56:51.900Z,2.52
2023-02-14T20:59:24.284Z,2.45
2023-02-14T21:01:51.417Z,2.42
2023-02-14T21:04:18.306Z,2.37
2023-02-14T21:06:45.318Z,2.30
2023-02-14T21:09:12.238Z,2.24
2023-02-14T21:11:42.494Z,2.19
2023-02-14T21:14:09.419Z,2.14
2023-02-14T21:16:36.342Z,2.11
2023-02-14T21:19:04.122Z,2.06
2023-02-14T21:21:36.383Z,2.00
2023-02-14T21:24:14.618Z,1.98
2023-02-14T21:26:42.968Z,1.93
2023-02-14T21:29:11.308Z,1.89
2023-02-14T21:31:39.333Z,1.83
2023-02-14T21:34:06.386Z,1.81
2023-02-14T21:36:37.740Z,1.80
2023-02-14T21:39:06.682Z,1.79
2023-02-14T21:41:35.629Z,1.78
2023-02-14T21:44:03.937Z,1.77
2023-02-14T21:46:35.943Z,1.78
2023-02-14T21:49:31.201Z,1.77
2023-02-14T21:51:58.416Z,1.72
2023-02-14T21:54:25.363Z,1.69
2023-02-14T21:56:52.256Z,1.68
2023-02-14T21:59:19.209Z,1.66
2023-02-14T22:01:46.282Z,1.66
2023-02-14T22:04:13.461Z,1.66
2023-02-14T22:06:42.674Z,1.65
2023-02-14T22:09:14.203Z,1.63
2023-02-14T22:11:41.675Z,1.62
2023-02-14T22:14:08.725Z,1.63
2023-02-14T22:16:38.064Z,1.64
2023-02-14T22:19:07.384Z,1.63
2023-02-14T22:21:35.118Z,1.64
2023-02-14T22:24:02.192Z,1.64
2023-02-14T22:26:38.765Z,1.65
2023-02-14T22:29:07.327Z,1.65
2023-02-14T22:31:41.038Z,1.73
2023-02-14T22:34:13.724Z,1.83
2023-02-14T22:36:40.974Z,1.96
2023-02-14T22:39:09.362Z,2.04
2023-02-14T22:41:37.851Z,2.12
2023-02-14T22:44:06.323Z,2.20
2023-02-14T22:46:36.808Z,2.26
2023-02-14T22:49:06.272Z,2.29
2023-02-14T22:51:40.334Z,2.37
2023-02-14T22:54:12.416Z,2.42
2023-02-14T22:56:48.281Z,2.46
2023-02-14T22:59:21.353Z,2.48
2023-02-14T23:01:51.145Z,2.50
2023-02-14T23:04:21.789Z,2.48
2023-02-14T23:06:51.168Z,2.42
2023-02-14T23:09:18.972Z,2.33
2023-02-14T23:11:47.443Z,2.24
2023-02-14T23:14:38.454Z,2.14
2023-02-14T23:17:24.505Z,2.05
2023-02-14T23:20:09.990Z,1.96
2023-02-14T23:22:40.631Z,1.85
2023-02-14T23:25:11.769Z,1.79
2023-02-14T23:27:44.270Z,1.73
2023-02-14T23:30:15.922Z,1.65
2023-02-14T23:32:43.936Z,1.60
2023-02-14T23:35:11.635Z,1.53
2023-02-14T23:37:38.622Z,1.47
2023-02-14T23:40:07.276Z,1.41
2023-02-14T23:42:34.234Z,1.38
2023-02-14T23:45:21.241Z,1.36
2023-02-14T23:47:48.306Z,1.31
2023-02-14T23:50:15.631Z,1.23
2023-02-14T23:52:44.441Z,1.20
2023-02-14T23:55:11.950Z,1.16
2023-02-14T23:57:39.555Z,1.14
